ADDS METAR Data INFO
IDs: Format: Raw Decoded Include TAF

Data at: 0155 UTC 18 Oct 2017

KEEN 180056Z AUTO 18003KT 10SM CLR 03/01 A3022 RMK AO2 SLP254 T00330006
KEEN 172356Z AUTO 00000KT 10SM CLR 04/01 A3021 RMK AO2 SLP253 T00440011 10150 20044 53008
KEEN 172256Z AUTO 19003KT 10SM CLR 06/01 A3019 RMK AO2 SLP246 T00610006 TSNO
KEEN 172156Z AUTO 20006KT 10SM CLR 11/M01 A3018 RMK AO2 SLP243 T01111006
KEEN 172056Z AUTO 19005KT 10SM CLR 14/M02 A3019 RMK AO2 SLP243 T01441017 56016
KEEN 171956Z AUTO 16003KT 10SM CLR 14/M01 A3020 RMK AO2 SLP248 T01441011 TSNO
KEEN 171856Z AUTO VRB05KT 10SM CLR 14/M02 A3021 RMK AO2 SLP250 T01391022
KEEN 171756Z AUTO 19004KT 10SM CLR 14/M02 A3024 RMK AO2 SLP262 T01391022 10139 21028 58022
KEEN 171656Z AUTO 27006KT 10SM CLR 12/M01 A3026 RMK AO2 SLP267 T01221011
KEEN 171556Z AUTO 00000KT 10SM CLR 11/M02 A3029 RMK AO2 SLP279 T01111017
KEEN 171456Z AUTO 03005KT 10SM CLR 09/01 A3030 RMK AO2 SLP282 T00940011 58006
KEEN 171356Z AUTO 00000KT 10SM CLR 07/04 A3032 RMK AO2 SLP287 T00670039
KEEN 171256Z AUTO 00000KT 10SM CLR 02/01 A3033 RMK AO2 SLP293 T00170006 FZRANO TSNO
KEEN 171156Z AUTO 00000KT 10SM CLR M03/M03 A3032 RMK AO2 SLP288 T10281033 11006 21033 51022 FZRANO
KEEN 171111Z AUTO 00000KT 10SM SCT002 M03/M03 A3031 RMK AO2 FZRANO
KEEN 171013Z AUTO 00000KT 3SM BR OVC002 M02/M03 A3028 RMK AO2 FZRANO
KEEN 171011Z AUTO 00000KT 1SM BR OVC002 M02/M03 A3028 RMK AO2 FZRANO
KEEN 171002Z AUTO 00000KT 1/2SM FZFG OVC002 M03/M03 A3028 RMK AO2 FZRANO
KEEN 170959Z AUTO 00000KT 1SM BR OVC002 M03/M03 A3028 RMK AO2 VIS 1/2V5 FZRANO
KEEN 170956Z AUTO 00000KT 2 1/2SM BR OVC002 M02/M03 A3028 RMK AO2 VIS 1/2V5 SLP277 T10221028 FZRANO
KEEN 170932Z AUTO 00000KT 10SM BKN002 M02/M03 A3028 RMK AO2 FZRANO
KEEN 170923Z AUTO 00000KT 9SM SCT002 M02/M02 A3028 RMK AO2 FZRANO
KEEN 170856Z AUTO 00000KT 10SM CLR M03/M03 A3025 RMK AO2 SLP268 T10281028 53014 FZRANO
KEEN 170853Z AUTO 00000KT 3SM BR FEW001 M03/M03 A3025 RMK AO2 FZRANO
KEEN 170844Z AUTO 00000KT 1 1/2SM BR FEW001 M03/M03 A3025 RMK AO2 FZRANO
KEEN 170756Z AUTO 19003KT 10SM CLR M02/M02 A3023 RMK AO2 SLP260 T10171022 FZRANO
KEEN 170656Z AUTO 00000KT 10SM CLR M02/M02 A3023 RMK AO2 SLP258 T10171022 FZRANO
KEEN 170556Z AUTO 00000KT 10SM CLR M01/M01 A3021 RMK AO2 SLP252 T10061011 10072 21011 53011 FZRANO
KEEN 170456Z AUTO 17003KT 10SM CLR 00/M01 A3019 RMK AO2 SLP246 T00001006 401720000 FZRANO
KEEN 170356Z AUTO 00000KT 10SM CLR 01/M01 A3018 RMK AO2 SLP242 T00061011 FZRANO
KEEN 170256Z AUTO 19013KT 10SM CLR 02/M02 A3018 RMK AO2 SLP242 T00171017 51020 FZRANO
KEEN 170156Z AUTO VRB03KT 10SM BKN060 05/00 A3017 RMK AO2 SLP237 T00500000
KEEN 162356Z AUTO 36012KT 10SM BKN036 07/01 A3012 RMK AO2 SLP222 T00720011 10117 20067 53025
KEEN 162256Z AUTO 36008KT 10SM OVC049 08/02 A3008 RMK AO2 SLP208 T00830022
KEEN 162156Z AUTO 35007KT 10SM OVC045 10/02 A3006 RMK AO2 SLP201 T01000022
KEEN 162056Z AUTO 32009G14KT 300V360 10SM OVC040 11/02 A3004 RMK AO2 SLP194 T01060017 53019
KEEN 161956Z AUTO 32010G15KT 10SM OVC038 11/02 A3002 RMK AO2 SLP186 T01060022
KEEN 161856Z AUTO 33011G17KT 10SM OVC038 11/02 A3000 RMK AO2 SLP177 T01110022
KEEN 161756Z AUTO 33009G16KT 10SM BKN036 11/03 A2999 RMK AO2 SLP174 T01110028 10122 20100 50002
KEEN 161656Z AUTO 33008G16KT 10SM OVC032 11/03 A3001 RMK AO2 SLP180 T01110033
KEEN 161556Z AUTO 32009G15KT 10SM OVC030 11/03 A2999 RMK AO2 SLP175 T01110033
KEEN 161456Z AUTO 33009G16KT 10SM OVC030 11/03 A2998 RMK AO2 SLP170 T01110033 51029
KEEN 161356Z AUTO 30009G16KT 10SM OVC030 11/03 A2996 RMK AO2 SLP163 T01060033